Hanjin Xiamen — 3EJL6 — position and weather

sailwx.info

Track history (hours):
 
Tides and Currents Weather Stations Pressure Air Temp Water Temp Dewpoint Dewpoint Depression Visibility Wind Speed Wind Dir Waves Ship Positions

Hanjin Xiamen

Last reported at 2017-Dec-03 00:24 UTC. Time now 2017-Dec-11 17:22 UTC.
Position N 35°07' W 126°21'.
Warning: this ship's position is 8 days out of date.

Length 304 m; draft 12.5 m.

Type: Ship (hazmat cat A). MMSI: 372557000.

Date/timePositionNaut miles runAvg speedWind from/ knotsBaromVisibWave heightAir tempDewpointWater temp
2017-Dec-03 00:24N 35°07' W 126°21'717.3
2017-Dec-03 00:00N 35°03' W 126°14'815.5
2017-Dec-02 23:30N 34°58' W 126°06'714.1
2017-Dec-02 23:00N 34°54' W 125°59'4 7.6
2017-Dec-02 22:30N 34°52' W 125°56'612.5
2017-Dec-02 22:00N 34°48' W 125°49'611.4
2017-Dec-02 21:31N 34°45' W 125°44'815.9
2017-Dec-02 21:00N 34°40' W 125°36'918.8
2017-Dec-02 20:30N 34°35' W 125°27'917.4
2017-Dec-02 20:00N 34°31' W 125°17'611.6
2017-Dec-02 19:30N 34°31' W 125°10'611.2
2017-Dec-02 19:00N 34°31' W 125°03'611.2
2017-Dec-02 18:30N 34°31' W 124°57'611.2
2017-Dec-02 18:00N 34°31' W 124°50'611.3
2017-Dec-02 17:31N 34°31' W 124°43'611.0
2017-Dec-02 17:00N 34°30' W 124°36'511.0
2017-Dec-02 16:30N 34°30' W 124°30'510.9
2017-Dec-02 16:00N 34°30' W 124°23'511.0
2017-Dec-02 15:30N 34°30' W 124°16'611.1
2017-Dec-02 15:00N 34°30' W 124°10'611.1
2017-Dec-02 14:30N 34°30' W 124°03'611.2
2017-Dec-02 13:59N 34°30' W 123°56'511.2
2017-Dec-02 13:30N 34°30' W 123°49'611.4
2017-Dec-02 13:00N 34°30' W 123°42'611.4
2017-Dec-02 12:30N 34°30' W 123°36'611.5
2017-Dec-02 12:00N 34°30' W 123°29'611.7
2017-Dec-02 11:30N 34°30' W 123°21'612.1
2017-Dec-02 11:00N 34°30' W 123°14'612.2
2017-Dec-02 10:30N 34°30' W 123°07'612.1
2017-Dec-02 10:00N 34°30' W 122°59'611.9
2017-Dec-02 09:30N 34°30' W 122°52'611.8
2017-Dec-02 09:00N 34°29' W 122°45'611.7
2017-Dec-02 08:30N 34°29' W 122°38'611.4
2017-Dec-02 08:00N 34°29' W 122°31'611.4
2017-Dec-02 07:30N 34°29' W 122°24'611.6
2017-Dec-02 07:00N 34°29' W 122°17'611.4
2017-Dec-02 06:30N 34°29' W 122°10'611.4
2017-Dec-02 06:00N 34°29' W 122°03'611.4
2017-Dec-02 05:30N 34°29' W 121°57'611.3
2017-Dec-02 05:00N 34°29' W 121°50'611.2
2017-Dec-02 04:30N 34°29' W 121°43'511.0
2017-Dec-02 04:00N 34°29' W 121°36'611.1
2017-Dec-02 03:30N 34°29' W 121°30'511.0
2017-Dec-02 03:00N 34°29' W 121°23'510.9
2017-Dec-02 02:31N 34°29' W 121°16'510.7
2017-Dec-02 02:01N 34°28' W 121°10'510.6
2017-Dec-02 01:30N 34°28' W 121°03'510.8
2017-Dec-02 01:01N 34°27' W 120°57'510.6
2017-Dec-02 00:30N 34°26' W 120°51'510.9
2017-Dec-02 00:00N 34°24' W 120°44'611.3
2017-Dec-01 23:30N 34°23' W 120°38'510.9
2017-Dec-01 23:00N 34°22' W 120°31'510.5
2017-Dec-01 22:29N 34°20' W 120°25'611.1
2017-Dec-01 21:58N 34°19' W 120°18'511.4
2017-Dec-01 21:30N 34°17' W 120°12'611.6
2017-Dec-01 21:00N 34°16' W 120°05'611.6
2017-Dec-01 20:28N 34°14' W 119°58'511.6
2017-Dec-01 20:00N 34°13' W 119°52'611.7
2017-Dec-01 19:30N 34°11' W 119°45'611.7
2017-Dec-01 19:00N 34°09' W 119°38'611.6
2017-Dec-01 18:30N 34°08' W 119°31'611.9
2017-Dec-01 18:00N 34°06' W 119°24'612.1
2017-Dec-01 17:30N 34°05' W 119°17'612.0
2017-Dec-01 17:00N 34°02' W 119°11'612.1
2017-Dec-01 16:30N 33°59' W 119°04'611.9
2017-Dec-01 16:01N 33°56' W 118°58'612.1
2017-Dec-01 15:30N 33°53' W 118°52'611.9
2017-Dec-01 15:00N 33°50' W 118°46'611.9
2017-Dec-01 14:30N 33°47' W 118°39'612.0
2017-Dec-01 14:00N 33°44' W 118°33'611.9
2017-Dec-01 13:30N 33°41' W 118°27'611.6
2017-Dec-01 12:59N 33°38' W 118°21'611.7
2017-Dec-01 12:30N 33°39' W 118°14'5 9.8
2017-Dec-01 12:00N 33°43' W 118°11'3 6.1
2017-Dec-01 11:28N 33°46' W 118°13'1 1.9
2017-Dec-01 11:00N 33°46' W 118°14'0 0.0
2017-Dec-01 09:26N 33°46' W 118°14'0 0.0
2017-Dec-01 08:56N 33°46' W 118°14'0 0.0
2017-Dec-01 07:02N 33°46' W 118°14'0 0.0
2017-Dec-01 05:44N 33°46' W 118°14'0 0.0
2017-Dec-01 05:26N 33°46' W 118°14'0 0.0
2017-Dec-01 04:44N 33°46' W 118°14'0 0.0
2017-Dec-01 04:26N 33°46' W 118°14'0 0.0
2017-Dec-01 03:56N 33°46' W 118°14'0 0.0
2017-Dec-01 03:20N 33°46' W 118°14'0 0.0
2017-Dec-01 02:56N 33°46' W 118°14'0 0.0
2017-Dec-01 02:26N 33°46' W 118°14'0 0.0
2017-Dec-01 01:56N 33°46' W 118°14'0 0.0
2017-Dec-01 01:26N 33°46' W 118°14'0 0.0
2017-Dec-01 00:50N 33°46' W 118°14'0 0.0
2017-Dec-01 00:26N 33°46' W 118°14'0 0.0
2017-Nov-30 23:44N 33°46' W 118°14'0 0.0
2017-Nov-30 23:08N 33°46' W 118°14'0 0.0
2017-Nov-30 22:56N 33°46' W 118°14'0 0.0
2017-Nov-30 22:20N 33°46' W 118°14'0 0.0
2017-Nov-30 21:56N 33°46' W 118°14'0 0.0
2017-Nov-30 21:26N 33°46' W 118°14'0 0.0
2017-Nov-30 18:32N 33°46' W 118°14'0 0.0
2017-Nov-30 11:02N 33°46' W 118°14'0 0.1
2017-Nov-30 10:56N 33°46' W 118°14'0 0.0
2017-Nov-30 10:08N 33°46' W 118°14'0 0.0
2017-Nov-30 09:56N 33°46' W 118°14'0 0.0
2017-Nov-30 09:26N 33°46' W 118°14'0 0.0
2017-Nov-30 08:50N 33°46' W 118°14'0 0.0
2017-Nov-30 08:26N 33°46' W 118°14'0 0.0
2017-Nov-30 07:56N 33°46' W 118°14'0 0.0
2017-Nov-30 07:26N 33°46' W 118°14'0 0.0
2017-Nov-30 01:56N 33°46' W 118°14'0 0.0
2017-Nov-30 01:26N 33°46' W 118°14'0 0.0
2017-Nov-30 00:56N 33°46' W 118°14'0 0.0
2017-Nov-29 23:38N 33°46' W 118°14'0 0.0
2017-Nov-29 23:26N 33°46' W 118°14'0 0.0
2017-Nov-29 22:56N 33°46' W 118°14'0 0.0
2017-Nov-29 22:26N 33°46' W 118°14'0 0.0
2017-Nov-29 21:56N 33°46' W 118°14'0 0.0
2017-Nov-29 21:26N 33°46' W 118°14'0 0.0
2017-Nov-29 20:50N 33°46' W 118°14'0 0.0
2017-Nov-29 20:26N 33°46' W 118°14'0 0.0
2017-Nov-29 19:50N 33°46' W 118°14'0 0.0
2017-Nov-29 19:29N 33°46' W 118°14'0 0.0
2017-Nov-29 17:56N 33°46' W 118°14'0 0.0
2017-Nov-29 15:32N 33°46' W 118°14'0 0.1
2017-Nov-29 15:26N 33°46' W 118°14'0 0.0
2017-Nov-29 04:14N 33°46' W 118°14'0 0.0
2017-Nov-29 03:56N 33°46' W 118°14'0 0.0
2017-Nov-29 02:32N 33°46' W 118°14'0 0.0
2017-Nov-29 02:08N 33°46' W 118°14'0 0.0
2017-Nov-29 01:44N 33°46' W 118°14'0 0.0
2017-Nov-29 01:20N 33°46' W 118°14'0 0.0
2017-Nov-29 01:00N 33°46' W 118°14'1 1.8
2017-Nov-29 00:30N 33°46' W 118°13'2 4.6
2017-Nov-29 00:00N 33°44' W 118°12'5 9.4
2017-Nov-28 23:30N 33°39' W 118°12'510.6
2017-Nov-28 23:00N 33°36' W 118°17'611.8
2017-Nov-28 22:30N 33°38' W 118°24'816.1
2017-Nov-28 22:00N 33°42' W 118°33'1121.6
2017-Nov-28 21:30N 33°47' W 118°44'1121.9
2017-Nov-28 21:00N 33°52' W 118°55'1122.0
2017-Nov-28 20:30N 33°58' W 119°07'1122.0
2017-Nov-28 20:00N 34°03' W 119°19'1122.2
2017-Nov-28 19:30N 34°06' W 119°32'1122.4
2017-Nov-28 19:00N 34°09' W 119°45'1122.2
2017-Nov-28 18:30N 34°12' W 119°58'1122.1
2017-Nov-28 17:59N 34°15' W 120°11'1122.0
2017-Nov-28 17:29N 34°18' W 120°24'1021.4
2017-Nov-28 17:00N 34°21' W 120°36'1121.9
2017-Nov-28 16:30N 34°24' W 120°49'1122.0
2017-Nov-28 16:00N 34°28' W 121°01'2221.7
2017-Nov-28 15:00N 34°38' W 121°24'1121.9
2017-Nov-28 14:30N 34°44' W 121°35'1122.0
2017-Nov-28 14:00N 34°50' W 121°46'  
Track history (hours):
 
Tides and Currents Weather Stations Pressure Air Temp Water Temp Dewpoint Dewpoint Depression Visibility Wind Speed Wind Dir Waves Ship Positions

Hanjin Xiamen

Last reported at 2017-Dec-03 00:24 UTC. Time now 2017-Dec-11 17:22 UTC.
Position N 35°07' W 126°21'.
Warning: this ship's position is 8 days out of date.

Length 304 m; draft 12.5 m.

Type: Ship (hazmat cat A). MMSI: 372557000.

Date/timePositionNaut miles runAvg speedWind from/ knotsBaromVisibWave heightAir tempDewpointWater temp
2017-Dec-03 00:24N 35°07' W 126°21'717.3
2017-Dec-03 00:00N 35°03' W 126°14'815.5
2017-Dec-02 23:30N 34°58' W 126°06'714.1
2017-Dec-02 23:00N 34°54' W 125°59'4 7.6
2017-Dec-02 22:30N 34°52' W 125°56'612.5
2017-Dec-02 22:00N 34°48' W 125°49'611.4
2017-Dec-02 21:31N 34°45' W 125°44'815.9
2017-Dec-02 21:00N 34°40' W 125°36'918.8
2017-Dec-02 20:30N 34°35' W 125°27'917.4
2017-Dec-02 20:00N 34°31' W 125°17'611.6
2017-Dec-02 19:30N 34°31' W 125°10'611.2
2017-Dec-02 19:00N 34°31' W 125°03'611.2
2017-Dec-02 18:30N 34°31' W 124°57'611.2
2017-Dec-02 18:00N 34°31' W 124°50'611.3
2017-Dec-02 17:31N 34°31' W 124°43'611.0
2017-Dec-02 17:00N 34°30' W 124°36'511.0
2017-Dec-02 16:30N 34°30' W 124°30'510.9
2017-Dec-02 16:00N 34°30' W 124°23'511.0
2017-Dec-02 15:30N 34°30' W 124°16'611.1
2017-Dec-02 15:00N 34°30' W 124°10'611.1
2017-Dec-02 14:30N 34°30' W 124°03'611.2
2017-Dec-02 13:59N 34°30' W 123°56'511.2
2017-Dec-02 13:30N 34°30' W 123°49'611.4
2017-Dec-02 13:00N 34°30' W 123°42'611.4
2017-Dec-02 12:30N 34°30' W 123°36'611.5
2017-Dec-02 12:00N 34°30' W 123°29'611.7
2017-Dec-02 11:30N 34°30' W 123°21'612.1
2017-Dec-02 11:00N 34°30' W 123°14'612.2
2017-Dec-02 10:30N 34°30' W 123°07'612.1
2017-Dec-02 10:00N 34°30' W 122°59'611.9
2017-Dec-02 09:30N 34°30' W 122°52'611.8
2017-Dec-02 09:00N 34°29' W 122°45'611.7
2017-Dec-02 08:30N 34°29' W 122°38'611.4
2017-Dec-02 08:00N 34°29' W 122°31'611.4
2017-Dec-02 07:30N 34°29' W 122°24'611.6
2017-Dec-02 07:00N 34°29' W 122°17'611.4
2017-Dec-02 06:30N 34°29' W 122°10'611.4
2017-Dec-02 06:00N 34°29' W 122°03'611.4
2017-Dec-02 05:30N 34°29' W 121°57'611.3
2017-Dec-02 05:00N 34°29' W 121°50'611.2
2017-Dec-02 04:30N 34°29' W 121°43'511.0
2017-Dec-02 04:00N 34°29' W 121°36'611.1
2017-Dec-02 03:30N 34°29' W 121°30'511.0
2017-Dec-02 03:00N 34°29' W 121°23'510.9
2017-Dec-02 02:31N 34°29' W 121°16'510.7
2017-Dec-02 02:01N 34°28' W 121°10'510.6
2017-Dec-02 01:30N 34°28' W 121°03'510.8
2017-Dec-02 01:01N 34°27' W 120°57'510.6
2017-Dec-02 00:30N 34°26' W 120°51'510.9
2017-Dec-02 00:00N 34°24' W 120°44'611.3
2017-Dec-01 23:30N 34°23' W 120°38'510.9
2017-Dec-01 23:00N 34°22' W 120°31'510.5
2017-Dec-01 22:29N 34°20' W 120°25'611.1
2017-Dec-01 21:58N 34°19' W 120°18'511.4
2017-Dec-01 21:30N 34°17' W 120°12'611.6
2017-Dec-01 21:00N 34°16' W 120°05'611.6
2017-Dec-01 20:28N 34°14' W 119°58'511.6
2017-Dec-01 20:00N 34°13' W 119°52'611.7
2017-Dec-01 19:30N 34°11' W 119°45'611.7
2017-Dec-01 19:00N 34°09' W 119°38'611.6
2017-Dec-01 18:30N 34°08' W 119°31'611.9
2017-Dec-01 18:00N 34°06' W 119°24'612.1
2017-Dec-01 17:30N 34°05' W 119°17'612.0
2017-Dec-01 17:00N 34°02' W 119°11'612.1
2017-Dec-01 16:30N 33°59' W 119°04'611.9
2017-Dec-01 16:01N 33°56' W 118°58'612.1
2017-Dec-01 15:30N 33°53' W 118°52'611.9
2017-Dec-01 15:00N 33°50' W 118°46'611.9
2017-Dec-01 14:30N 33°47' W 118°39'612.0
2017-Dec-01 14:00N 33°44' W 118°33'611.9
2017-Dec-01 13:30N 33°41' W 118°27'611.6
2017-Dec-01 12:59N 33°38' W 118°21'611.7
2017-Dec-01 12:30N 33°39' W 118°14'5 9.8
2017-Dec-01 12:00N 33°43' W 118°11'3 6.1
2017-Dec-01 11:28N 33°46' W 118°13'1 1.9
2017-Dec-01 11:00N 33°46' W 118°14'0 0.0
2017-Dec-01 09:26N 33°46' W 118°14'0 0.0
2017-Dec-01 08:56N 33°46' W 118°14'0 0.0
2017-Dec-01 07:02N 33°46' W 118°14'0 0.0
2017-Dec-01 05:44N 33°46' W 118°14'0 0.0
2017-Dec-01 05:26N 33°46' W 118°14'0 0.0
2017-Dec-01 04:44N 33°46' W 118°14'0 0.0
2017-Dec-01 04:26N 33°46' W 118°14'0 0.0
2017-Dec-01 03:56N 33°46' W 118°14'0 0.0
2017-Dec-01 03:20N 33°46' W 118°14'0 0.0
2017-Dec-01 02:56N 33°46' W 118°14'0 0.0
2017-Dec-01 02:26N 33°46' W 118°14'0 0.0
2017-Dec-01 01:56N 33°46' W 118°14'0 0.0
2017-Dec-01 01:26N 33°46' W 118°14'0 0.0
2017-Dec-01 00:50N 33°46' W 118°14'0 0.0
2017-Dec-01 00:26N 33°46' W 118°14'0 0.0
2017-Nov-30 23:44N 33°46' W 118°14'0 0.0
2017-Nov-30 23:08N 33°46' W 118°14'0 0.0
2017-Nov-30 22:56N 33°46' W 118°14'0 0.0
2017-Nov-30 22:20N 33°46' W 118°14'0 0.0
2017-Nov-30 21:56N 33°46' W 118°14'0 0.0
2017-Nov-30 21:26N 33°46' W 118°14'0 0.0
2017-Nov-30 18:32N 33°46' W 118°14'0 0.0
2017-Nov-30 11:02N 33°46' W 118°14'0 0.1
2017-Nov-30 10:56N 33°46' W 118°14'0 0.0
2017-Nov-30 10:08N 33°46' W 118°14'0 0.0
2017-Nov-30 09:56N 33°46' W 118°14'0 0.0
2017-Nov-30 09:26N 33°46' W 118°14'0 0.0
2017-Nov-30 08:50N 33°46' W 118°14'0 0.0
2017-Nov-30 08:26N 33°46' W 118°14'0 0.0
2017-Nov-30 07:56N 33°46' W 118°14'0 0.0
2017-Nov-30 07:26N 33°46' W 118°14'0 0.0
2017-Nov-30 01:56N 33°46' W 118°14'0 0.0
2017-Nov-30 01:26N 33°46' W 118°14'0 0.0
2017-Nov-30 00:56N 33°46' W 118°14'0 0.0
2017-Nov-29 23:38N 33°46' W 118°14'0 0.0
2017-Nov-29 23:26N 33°46' W 118°14'0 0.0
2017-Nov-29 22:56N 33°46' W 118°14'0 0.0
2017-Nov-29 22:26N 33°46' W 118°14'0 0.0
2017-Nov-29 21:56N 33°46' W 118°14'0 0.0
2017-Nov-29 21:26N 33°46' W 118°14'0 0.0
2017-Nov-29 20:50N 33°46' W 118°14'0 0.0
2017-Nov-29 20:26N 33°46' W 118°14'0 0.0
2017-Nov-29 19:50N 33°46' W 118°14'0 0.0
2017-Nov-29 19:29N 33°46' W 118°14'0 0.0
2017-Nov-29 17:56N 33°46' W 118°14'0 0.0
2017-Nov-29 15:32N 33°46' W 118°14'0 0.1
2017-Nov-29 15:26N 33°46' W 118°14'0 0.0
2017-Nov-29 04:14N 33°46' W 118°14'0 0.0
2017-Nov-29 03:56N 33°46' W 118°14'0 0.0
2017-Nov-29 02:32N 33°46' W 118°14'0 0.0
2017-Nov-29 02:08N 33°46' W 118°14'0 0.0
2017-Nov-29 01:44N 33°46' W 118°14'0 0.0
2017-Nov-29 01:20N 33°46' W 118°14'0 0.0
2017-Nov-29 01:00N 33°46' W 118°14'1 1.8
2017-Nov-29 00:30N 33°46' W 118°13'2 4.6
2017-Nov-29 00:00N 33°44' W 118°12'5 9.4
2017-Nov-28 23:30N 33°39' W 118°12'510.6
2017-Nov-28 23:00N 33°36' W 118°17'611.8
2017-Nov-28 22:30N 33°38' W 118°24'816.1
2017-Nov-28 22:00N 33°42' W 118°33'1121.6
2017-Nov-28 21:30N 33°47' W 118°44'1121.9
2017-Nov-28 21:00N 33°52' W 118°55'1122.0
2017-Nov-28 20:30N 33°58' W 119°07'1122.0
2017-Nov-28 20:00N 34°03' W 119°19'1122.2
2017-Nov-28 19:30N 34°06' W 119°32'1122.4
2017-Nov-28 19:00N 34°09' W 119°45'1122.2
2017-Nov-28 18:30N 34°12' W 119°58'1122.1
2017-Nov-28 17:59N 34°15' W 120°11'1122.0
2017-Nov-28 17:29N 34°18' W 120°24'1021.4
2017-Nov-28 17:00N 34°21' W 120°36'1121.9
2017-Nov-28 16:30N 34°24' W 120°49'1122.0
2017-Nov-28 16:00N 34°28' W 121°01'2221.7
2017-Nov-28 15:00N 34°38' W 121°24'1121.9
2017-Nov-28 14:30N 34°44' W 121°35'1122.0
2017-Nov-28 14:00N 34°50' W 121°46'  

Dump ship's entire track history